Time;durP1;ratioP1;P1;durP2;ratioP2;P2;SDS_P1;SDS_P2;PMS_P1;PMS_P2;Temp;Humidity;BMP_temperature;BMP_pressure;BME280_temperature;BME280_humidity;BME280_pressure;Samples;Min_cycle;Max_cycle;Signal;HPM_P1;HPM_P2
2022/07/15 04:05:43;;;;;;;2.03;1.93;;;15.70;96.40;;;;;;5011661;28;20543;-66
2022/07/15 04:08:09;;;;;;;2.17;1.90;;;15.80;96.20;;;;;;5013414;28;20404;-65
2022/07/15 04:10:35;;;;;;;3.03;2.70;;;15.80;96.80;;;;;;5012808;28;21031;-64
2022/07/15 04:13:01;;;;;;;3.10;2.90;;;15.90;96.20;;;;;;5020526;28;20672;-66
2022/07/15 04:15:26;;;;;;;3.00;2.63;;;16.00;96.60;;;;;;5031909;28;20408;-64
2022/07/15 04:17:52;;;;;;;2.90;2.70;;;16.00;96.90;;;;;;5018638;28;21066;-64
2022/07/15 04:20:18;;;;;;;3.73;3.53;;;16.00;97.20;;;;;;5013245;28;20163;-66
2022/07/15 04:22:46;;;;;;;3.23;2.70;;;16.00;97.50;;;;;;5012827;28;20582;-64
2022/07/15 04:25:15;;;;;;;3.17;2.53;;;16.00;97.80;;;;;;5013334;28;20217;-66
2022/07/15 04:27:42;;;;;;;2.57;2.30;;;16.00;98.20;;;;;;5013269;28;20405;-65
2022/07/15 04:30:08;;;;;;;2.40;1.87;;;16.10;98.50;;;;;;5027729;28;20878;-66
2022/07/15 04:32:34;;;;;;;5.00;2.60;;;16.30;98.50;;;;;;5033620;28;20401;-66
2022/07/15 04:35:01;;;;;;;2.47;2.03;;;16.40;97.60;;;;;;5034398;28;20432;-65
2022/07/15 04:37:27;;;;;;;2.47;2.30;;;16.40;96.80;;;;;;5036850;28;20754;-65
2022/07/15 04:39:54;;;;;;;2.37;2.13;;;16.50;95.90;;;;;;5036696;28;20769;-65
2022/07/15 04:42:20;;;;;;;2.17;2.00;;;16.50;94.60;;;;;;5036476;28;20402;-65
2022/07/15 04:44:47;;;;;;;2.13;2.03;;;16.60;94.70;;;;;;5035261;28;20449;-66
2022/07/15 04:47:12;;;;;;;3.83;2.83;;;16.70;95.10;;;;;;5036484;28;20955;-65
2022/07/15 04:52:24;;;;;;;2.70;2.43;;;17.00;93.90;;;;;;5036369;28;20492;-67
2022/07/15 04:54:53;;;;;;;2.53;2.33;;;17.30;93.10;;;;;;5035037;28;20507;-67
2022/07/15 04:57:20;;;;;;;2.80;2.60;;;17.50;92.10;;;;;;5036410;28;20442;-67
2022/07/15 04:59:46;;;;;;;2.00;1.90;;;17.60;92.50;;;;;;5036553;28;20430;-67
2022/07/15 05:02:11;;;;;;;3.23;1.80;;;17.70;91.90;;;;;;5034490;28;20771;-67
2022/07/15 05:04:38;;;;;;;2.50;2.30;;;17.80;91.70;;;;;;5036200;28;20450;-68
2022/07/15 05:07:05;;;;;;;2.17;2.03;;;17.90;91.30;;;;;;5016565;28;20187;-66
2022/07/15 05:09:31;;;;;;;1.80;1.70;;;18.00;91.10;;;;;;5016412;28;20458;-65
2022/07/15 05:11:56;;;;;;;2.57;1.97;;;18.10;91.10;;;;;;5016382;28;20905;-65
2022/07/15 05:14:22;;;;;;;2.73;2.53;;;18.00;90.50;;;;;;5015884;28;20436;-66
2022/07/15 05:16:48;;;;;;;3.30;2.30;;;18.00;91.10;;;;;;5016330;28;20161;-66
2022/07/15 05:19:14;;;;;;;1.57;1.57;;;17.90;91.30;;;;;;5016202;28;20565;-66
2022/07/15 05:21:40;;;;;;;2.20;2.10;;;18.00;92.00;;;;;;5016144;28;20179;-66
2022/07/15 05:24:06;;;;;;;2.43;2.33;;;18.00;91.30;;;;;;5015874;28;20192;-65
2022/07/15 05:26:31;;;;;;;4.00;2.47;;;18.20;91.20;;;;;;5015913;28;20657;-66
2022/07/15 05:28:57;;;;;;;2.37;2.27;;;18.30;91.10;;;;;;5016183;28;20451;-65
2022/07/15 05:31:23;;;;;;;3.10;2.50;;;18.30;91.40;;;;;;5016155;28;20201;-64
2022/07/15 05:33:48;;;;;;;2.33;2.23;;;18.40;91.10;;;;;;5015548;28;20189;-66
2022/07/15 05:36:15;;;;;;;2.57;2.37;;;18.40;91.40;;;;;;5016035;28;20175;-66
2022/07/15 05:38:41;;;;;;;3.60;2.07;;;18.40;91.60;;;;;;5016054;28;20195;-67
2022/07/15 05:41:08;;;;;;;3.10;1.97;;;18.50;91.10;;;;;;5016000;28;20404;-65
2022/07/15 05:43:34;;;;;;;5.07;2.67;;;18.50;90.50;;;;;;5014284;28;20438;-65
2022/07/15 05:46:00;;;;;;;2.53;2.17;;;18.60;91.00;;;;;;5012103;28;20926;-65
2022/07/15 05:48:25;;;;;;;2.73;2.13;;;18.70;91.30;;;;;;5008755;28;20479;-66
2022/07/15 05:50:51;;;;;;;2.83;2.63;;;18.70;90.70;;;;;;4998035;28;20187;-68
2022/07/15 05:53:17;;;;;;;3.67;2.50;;;18.70;90.90;;;;;;4995522;28;20191;-65
2022/07/15 05:55:42;;;;;;;2.70;2.50;;;18.90;90.30;;;;;;4995789;28;20174;-66
2022/07/15 05:58:08;;;;;;;3.17;2.30;;;18.90;89.10;;;;;;4996171;28;20170;-65
2022/07/15 06:00:36;;;;;;;2.77;2.57;;;19.20;87.20;;;;;;5009493;28;20179;-67
2022/07/15 06:03:02;;;;;;;3.10;2.80;;;19.40;86.10;;;;;;5014927;28;20883;-66
2022/07/15 06:05:28;;;;;;;2.40;2.20;;;19.60;85.40;;;;;;5014532;28;20572;-66
2022/07/15 06:07:54;;;;;;;2.90;2.50;;;19.80;85.80;;;;;;5014407;28;20225;-67
2022/07/15 06:10:19;;;;;;;4.40;2.93;;;19.90;84.90;;;;;;5013262;28;20544;-68
2022/07/15 06:12:46;;;;;;;4.13;1.97;;;20.00;85.10;;;;;;4995236;28;20450;-67
2022/07/15 06:15:11;;;;;;;4.73;2.67;;;20.20;84.70;;;;;;4994188;28;20334;-66
2022/07/15 06:17:37;;;;;;;2.57;2.37;;;20.20;81.90;;;;;;4994141;28;20502;-66
2022/07/15 06:20:05;;;;;;;3.00;1.97;;;20.30;82.30;;;;;;4996223;28;20175;-66
2022/07/15 06:22:30;;;;;;;4.00;1.90;;;20.40;81.10;;;;;;4995014;28;20411;-67
2022/07/15 06:24:56;;;;;;;9.73;2.30;;;20.60;80.10;;;;;;4995130;28;20431;-65
2022/07/15 06:27:21;;;;;;;2.17;2.03;;;20.60;78.40;;;;;;5000522;28;20209;-67
2022/07/15 06:29:51;;;;;;;2.00;1.90;;;20.60;79.50;;;;;;5015276;28;20586;-66
2022/07/15 06:32:18;;;;;;;4.23;2.10;;;20.50;80.50;;;;;;5014390;28;20171;-68
2022/07/15 06:34:43;;;;;;;2.87;2.13;;;20.50;79.40;;;;;;5014100;28;20441;-67
2022/07/15 06:37:09;;;;;;;1.70;1.60;;;20.50;78.10;;;;;;5014784;28;20461;-66
2022/07/15 06:39:35;;;;;;;2.83;2.27;;;20.70;79.20;;;;;;5014643;28;20385;-65
2022/07/15 06:42:01;;;;;;;11.90;2.60;;;20.70;79.10;;;;;;5014493;28;20441;-66
2022/07/15 06:44:27;;;;;;;1.77;1.70;;;20.90;78.10;;;;;;5014049;28;20562;-64
2022/07/15 06:46:53;;;;;;;2.87;2.00;;;20.90;79.00;;;;;;5012429;28;20418;-65
2022/07/15 06:49:19;;;;;;;2.10;2.00;;;20.90;79.20;;;;;;5013855;28;20441;-65
2022/07/15 06:51:45;;;;;;;4.10;2.07;;;21.00;79.10;;;;;;5013219;28;20498;-67
2022/07/15 06:54:11;;;;;;;2.47;2.27;;;21.00;78.50;;;;;;5010676;28;20642;-65
2022/07/15 06:56:37;;;;;;;2.60;2.40;;;21.00;79.00;;;;;;5013232;28;20178;-65
2022/07/15 06:59:03;;;;;;;1.73;1.63;;;21.10;80.00;;;;;;5013800;28;20393;-65
2022/07/15 07:01:29;;;;;;;2.40;2.20;;;21.20;76.70;;;;;;5013582;28;20509;-66
2022/07/15 07:03:55;;;;;;;1.73;1.63;;;21.50;76.60;;;;;;5013352;28;20650;-65
2022/07/15 07:06:21;;;;;;;1.50;1.40;;;21.70;75.70;;;;;;5014502;28;20171;-65
2022/07/15 07:08:47;;;;;;;1.60;1.50;;;21.90;74.20;;;;;;5014450;28;20463;-65
2022/07/15 07:11:17;;;;;;;2.53;1.93;;;22.00;73.50;;;;;;5014218;28;20404;-63
2022/07/15 07:13:43;;;;;;;1.40;1.30;;;22.10;71.40;;;;;;5013652;28;20987;-68
2022/07/15 07:16:08;;;;;;;4.23;1.80;;;22.20;69.40;;;;;;5013188;28;20623;-65
2022/07/15 07:18:34;;;;;;;1.57;1.47;;;22.20;68.70;;;;;;4995340;28;20188;-68
2022/07/15 07:21:01;;;;;;;1.10;1.10;;;22.20;66.50;;;;;;5004203;28;20177;-66
2022/07/15 07:23:27;;;;;;;1.43;1.33;;;22.30;66.20;;;;;;5012910;28;20436;-67
2022/07/15 07:25:54;;;;;;;1.67;1.43;;;22.40;66.30;;;;;;5010948;28;20413;-68
2022/07/15 07:28:20;;;;;;;1.97;1.20;;;22.50;67.00;;;;;;5014076;28;20372;-68
2022/07/15 07:30:46;;;;;;;1.77;1.67;;;22.60;66.30;;;;;;5010537;28;20467;-68
2022/07/15 07:33:12;;;;;;;2.53;1.87;;;22.80;67.30;;;;;;5012319;28;20411;-68
2022/07/15 07:35:38;;;;;;;3.87;2.23;;;23.20;67.10;;;;;;5012890;28;20416;-70
2022/07/15 07:38:04;;;;;;;1.93;1.83;;;23.70;66.90;;;;;;5012990;28;20492;-71
2022/07/15 07:40:30;;;;;;;2.80;1.83;;;24.20;65.90;;;;;;5011222;28;20533;-68
2022/07/15 07:42:56;;;;;;;2.80;1.80;;;25.10;65.80;;;;;;5012225;28;20916;-68
2022/07/15 07:45:23;;;;;;;2.00;1.90;;;26.20;62.80;;;;;;5012723;28;20218;-69
2022/07/15 07:47:49;;;;;;;2.07;1.97;;;27.20;59.20;;;;;;5011373;28;20179;-68
2022/07/15 07:50:15;;;;;;;4.30;2.13;;;28.40;58.10;;;;;;5012596;28;20440;-65
2022/07/15 07:52:41;;;;;;;4.13;1.87;;;29.70;56.00;;;;;;5012624;28;20416;-66
2022/07/15 07:55:09;;;;;;;1.97;1.87;;;30.90;54.50;;;;;;5012488;28;20450;-69
2022/07/15 07:57:35;;;;;;;1.83;1.73;;;31.80;51.80;;;;;;5013209;28;20992;-66
2022/07/15 08:00:02;;;;;;;2.20;2.10;;;32.60;51.60;;;;;;5012759;28;20502;-68
2022/07/15 08:02:29;;;;;;;2.13;2.03;;;33.30;50.20;;;;;;5011393;28;20417;-68
2022/07/15 08:04:55;;;;;;;2.00;1.87;;;34.00;48.80;;;;;;5011489;28;21100;-67
2022/07/15 08:07:22;;;;;;;2.07;1.97;;;34.90;47.50;;;;;;5008109;28;20465;-68
2022/07/15 08:09:47;;;;;;;2.23;2.03;;;35.50;46.00;;;;;;5010856;28;20924;-68
2022/07/15 08:12:13;;;;;;;1.97;1.87;;;35.70;45.40;;;;;;5012936;28;20200;-68
2022/07/15 08:14:39;;;;;;;2.43;2.07;;;35.90;43.90;;;;;;5009030;28;20199;-68
2022/07/15 08:17:04;;;;;;;2.10;2.00;;;35.90;42.90;;;;;;4993705;28;20631;-66
2022/07/15 08:19:30;;;;;;;2.27;2.17;;;35.80;42.40;;;;;;4994546;28;20176;-67
2022/07/15 08:21:55;;;;;;;1.90;1.77;;;35.80;42.90;;;;;;5013038;28;20262;-66
2022/07/15 08:24:21;;;;;;;2.33;2.23;;;35.70;42.30;;;;;;5012009;28;20651;-70
2022/07/15 08:26:47;;;;;;;2.23;2.10;;;35.70;42.10;;;;;;5012537;28;20175;-65
2022/07/15 08:29:12;;;;;;;2.00;1.90;;;35.70;42.20;;;;;;5012982;28;20241;-66
2022/07/15 08:31:38;;;;;;;2.03;1.93;;;35.60;42.80;;;;;;5012763;28;20193;-67
2022/07/15 08:34:05;;;;;;;2.00;1.90;;;35.90;42.00;;;;;;5012473;28;20195;-66
2022/07/15 08:36:31;;;;;;;2.10;1.90;;;35.90;41.40;;;;;;5012845;28;20171;-67
2022/07/15 08:38:57;;;;;;;2.00;1.90;;;35.90;41.40;;;;;;5012136;28;20900;-68
2022/07/15 08:41:22;;;;;;;6.63;2.40;;;36.20;40.70;;;;;;4999942;28;20180;-68
2022/07/15 08:43:48;;;;;;;2.53;2.03;;;36.30;40.90;;;;;;4991431;28;20778;-67
2022/07/15 08:46:16;;;;;;;1.73;1.63;;;35.80;40.70;;;;;;4992806;28;20195;-68
2022/07/15 08:48:49;;;;;;;1.97;1.80;;;35.40;41.40;;;;;;4992831;28;20411;-68
2022/07/15 08:51:15;;;;;;;2.30;2.20;;;35.50;41.20;;;;;;5007517;28;20429;-67
2022/07/15 08:53:40;;;;;;;2.93;2.00;;;35.50;41.20;;;;;;5011620;28;20461;-67
2022/07/15 08:56:06;;;;;;;2.67;2.47;;;35.80;41.10;;;;;;5012632;28;20766;-67
2022/07/15 08:58:36;;;;;;;2.30;2.20;;;36.10;40.40;;;;;;5011487;28;20198;-66
2022/07/15 09:01:02;;;;;;;1.97;1.87;;;36.20;40.30;;;;;;5012414;28;20421;-68
2022/07/15 09:03:27;;;;;;;2.30;2.20;;;36.70;39.70;;;;;;5011437;28;20442;-66
2022/07/15 09:05:53;;;;;;;2.43;2.03;;;36.60;40.40;;;;;;5012300;28;20191;-68
2022/07/15 09:08:19;;;;;;;2.37;2.27;;;36.70;39.70;;;;;;5012758;28;20642;-67
2022/07/15 09:10:50;;;;;;;2.80;2.50;;;37.00;39.00;;;;;;5012069;28;20203;-67
2022/07/15 09:13:30;;;;;;;1.97;1.87;;;37.00;38.40;;;;;;5012126;28;20453;-67
2022/07/15 09:16:08;;;;;;;3.53;3.27;;;36.50;38.90;;;;;;5012579;28;20484;-67
2022/07/15 09:18:44;;;;;;;2.47;2.27;;;36.60;38.80;;;;;;4994598;28;20435;-66
2022/07/15 09:21:22;;;;;;;3.30;3.10;;;36.90;38.60;;;;;;5011223;28;20407;-65
2022/07/15 09:23:48;;;;;;;1.97;1.87;;;36.90;38.60;;;;;;5015682;28;20422;-67
2022/07/15 09:26:36;;;;;;;2.30;2.10;;;36.50;39.20;;;;;;5011798;28;20506;-67
2022/07/15 09:29:02;;;;;;;4.53;2.50;;;36.50;39.90;;;;;;4996254;28;20541;-68
2022/07/15 09:34:21;;;;;;;2.33;2.23;;;35.90;38.80;;;;;;5014982;28;20468;-68
2022/07/15 09:36:54;;;;;;;2.10;2.00;;;35.60;39.70;;;;;;5015416;28;20773;-68
2022/07/15 09:39:21;;;;;;;3.70;2.20;;;35.30;39.10;;;;;;5015880;28;20501;-67
2022/07/15 09:41:52;;;;;;;2.37;2.27;;;35.20;39.10;;;;;;5015001;28;20448;-67
2022/07/15 09:44:20;;;;;;;2.10;2.00;;;34.70;39.10;;;;;;5015519;28;20432;-67
2022/07/15 09:46:52;;;;;;;1.90;1.80;;;34.60;39.70;;;;;;5015880;28;20414;-66
2022/07/15 09:49:27;;;;;;;2.70;2.20;;;35.00;40.20;;;;;;5015723;28;20466;-67
2022/07/15 09:52:04;;;;;;;2.10;2.00;;;35.70;39.60;;;;;;5014526;28;20425;-79
2022/07/15 09:54:32;;;;;;;2.50;2.40;;;36.30;38.30;;;;;;5014193;28;20540;-72
2022/07/15 09:57:00;;;;;;;2.40;2.30;;;36.70;37.90;;;;;;5015465;28;20418;-77
2022/07/15 09:59:27;;;;;;;2.87;2.77;;;37.00;37.50;;;;;;5013988;28;20422;-72
2022/07/15 10:01:53;;;;;;;2.17;2.07;;;37.20;37.60;;;;;;5015207;28;20432;-73
2022/07/15 10:04:23;;;;;;;2.33;2.23;;;37.40;38.40;;;;;;5010848;28;20466;-75
2022/07/15 10:06:51;;;;;;;2.20;2.10;;;37.90;38.60;;;;;;5004354;28;20766;-77
2022/07/15 10:09:31;;;;;;;2.30;2.20;;;38.50;37.40;;;;;;5013208;28;20461;-76
2022/07/15 10:12:00;;;;;;;3.17;2.97;;;38.70;36.90;;;;;;5013640;28;20917;-77
2022/07/15 10:15:27;;;;;;;2.57;2.47;;;38.50;37.20;;;;;;5014845;28;20436;-77
2022/07/15 10:18:27;;;;;;;2.80;2.70;;;37.90;37.60;;;;;;5008065;28;20937;-69
2022/07/15 10:21:05;;;;;;;3.23;2.30;;;38.10;37.70;;;;;;5014596;28;20409;-65
2022/07/15 10:23:48;;;;;;;2.60;2.50;;;38.60;37.00;;;;;;5034636;28;20995;-66
2022/07/15 10:26:47;;;;;;;2.00;1.90;;;38.60;36.40;;;;;;4995464;28;20421;-66
2022/07/15 10:29:15;;;;;;;2.63;2.53;;;38.30;36.10;;;;;;4995301;28;20469;-66
2022/07/15 10:31:40;;;;;;;2.73;2.53;;;38.00;37.00;;;;;;5000531;28;20476;-68
2022/07/15 10:34:12;;;;;;;2.97;2.77;;;37.60;36.70;;;;;;5014742;28;20797;-68
2022/07/15 10:36:47;;;;;;;3.00;2.80;;;37.50;37.10;;;;;;5013780;28;20256;-67
2022/07/15 10:39:14;;;;;;;3.00;2.80;;;36.70;37.40;;;;;;5014641;28;20528;-67
2022/07/15 10:41:53;;;;;;;2.70;2.60;;;36.50;37.10;;;;;;5006887;28;20427;-68
2022/07/15 10:44:20;;;;;;;2.20;2.10;;;36.20;37.80;;;;;;4993160;28;21084;-67
2022/07/15 10:46:46;;;;;;;2.57;2.40;;;35.90;37.60;;;;;;4995835;28;20434;-68
2022/07/15 10:49:12;;;;;;;2.50;2.27;;;35.60;38.10;;;;;;4995188;28;20938;-67
2022/07/15 10:51:37;;;;;;;2.20;2.10;;;35.20;39.30;;;;;;4994920;28;20493;-67
2022/07/15 10:54:26;;;;;;;2.57;2.33;;;35.30;39.80;;;;;;4994257;28;20250;-69
2022/07/15 10:56:51;;;;;;;2.90;2.70;;;35.50;39.70;;;;;;5005114;28;20214;-68
2022/07/15 10:59:21;;;;;;;2.40;2.20;;;35.80;39.30;;;;;;4994925;28;20415;-69
2022/07/15 11:01:49;;;;;;;2.63;2.47;;;35.90;39.10;;;;;;4995209;28;20176;-67
2022/07/15 11:04:23;;;;;;;2.90;2.80;;;35.60;38.90;;;;;;4994155;28;20455;-67
2022/07/15 11:09:48;;;;;;;2.60;2.40;;;35.10;38.40;;;;;;4994752;28;20450;-67
2022/07/15 11:12:21;;;;;;;2.57;2.37;;;34.90;38.70;;;;;;5009786;28;20425;-66
2022/07/15 11:14:53;;;;;;;3.40;2.43;;;34.70;39.50;;;;;;5013976;28;20430;-68
2022/07/15 11:17:37;;;;;;;2.90;2.40;;;34.10;39.70;;;;;;5013968;28;20481;-67
2022/07/15 11:20:08;;;;;;;2.17;2.00;;;33.40;41.10;;;;;;5014167;28;20410;-66
2022/07/15 11:22:36;;;;;;;3.03;2.70;;;32.40;43.00;;;;;;5013788;28;20405;-69
2022/07/15 11:25:03;;;;;;;2.37;2.07;;;31.50;43.30;;;;;;5013462;28;20426;-67
2022/07/15 11:27:30;;;;;;;2.67;2.47;;;30.70;42.50;;;;;;4994048;28;20389;-67
2022/07/15 11:30:01;;;;;;;2.30;2.10;;;30.30;43.10;;;;;;4994110;28;20888;-67
2022/07/15 11:32:29;;;;;;;2.23;2.10;;;29.70;45.00;;;;;;4993869;28;20408;-65
2022/07/15 11:34:57;;;;;;;2.77;2.57;;;29.40;45.00;;;;;;4994055;28;20397;-65
2022/07/15 11:37:34;;;;;;;2.40;2.00;;;28.80;45.70;;;;;;4996645;28;20837;-67
2022/07/15 11:45:41;;;;;;;4.23;2.23;;;27.40;48.20;;;;;;4994069;28;20818;-65
2022/07/15 11:48:07;;;;;;;1.90;1.80;;;27.00;48.40;;;;;;4993877;28;20491;-65
2022/07/15 11:50:37;;;;;;;2.37;2.17;;;26.70;49.70;;;;;;4993859;28;20201;-66
2022/07/15 11:53:33;;;;;;;4.83;2.30;;;26.60;49.80;;;;;;5010600;28;20219;-65
2022/07/15 11:55:59;;;;;;;2.53;2.30;;;26.60;50.20;;;;;;5013593;28;20440;-64
2022/07/15 11:58:46;;;;;;;6.10;2.87;;;26.60;50.70;;;;;;5013596;28;20818;-65
2022/07/15 12:01:14;;;;;;;2.33;2.23;;;26.70;51.00;;;;;;5013078;28;20456;-67
2022/07/15 12:03:46;;;;;;;2.33;2.20;;;26.80;50.00;;;;;;5012959;28;20474;-65
2022/07/15 12:06:21;;;;;;;2.50;2.30;;;26.80;49.90;;;;;;4995154;28;20484;-66
2022/07/15 12:08:48;;;;;;;2.70;2.40;;;26.60;49.90;;;;;;4994111;28;20395;-65
2022/07/15 12:11:21;;;;;;;3.20;2.90;;;26.50;51.20;;;;;;4993761;28;20431;-67
2022/07/15 12:14:00;;;;;;;6.87;3.73;;;26.50;50.70;;;;;;4993387;28;20938;-67
2022/07/15 12:16:34;;;;;;;2.67;2.47;;;26.70;52.30;;;;;;4993800;28;20389;-66
2022/07/15 12:19:09;;;;;;;2.93;2.67;;;26.60;50.50;;;;;;4994094;28;21080;-65
2022/07/15 12:21:40;;;;;;;2.47;2.27;;;26.40;51.10;;;;;;5010110;28;20528;-65
2022/07/15 12:24:12;;;;;;;2.53;2.33;;;26.40;50.90;;;;;;5011131;28;20724;-64
2022/07/15 12:26:55;;;;;;;2.73;2.53;;;26.30;50.80;;;;;;5011593;28;20393;-64
2022/07/15 12:29:22;;;;;;;2.23;2.13;;;26.20;51.50;;;;;;5012750;28;20886;-68
2022/07/15 12:31:53;;;;;;;2.60;2.40;;;26.00;50.70;;;;;;5013353;28;20467;-66
2022/07/15 12:34:19;;;;;;;2.90;2.60;;;25.90;51.30;;;;;;5005656;28;20417;-66
2022/07/15 12:36:55;;;;;;;3.67;2.57;;;25.90;53.00;;;;;;4993570;28;20385;-65
2022/07/15 12:39:21;;;;;;;2.20;2.00;;;26.00;51.80;;;;;;4993319;28;20909;-65
2022/07/15 12:42:00;;;;;;;2.90;2.43;;;26.00;50.60;;;;;;4993554;28;20411;-65
2022/07/15 12:44:26;;;;;;;2.07;1.97;;;26.00;50.60;;;;;;4993206;28;20450;-64
2022/07/15 12:47:06;;;;;;;2.90;2.70;;;26.00;50.90;;;;;;4993264;28;20489;-64
2022/07/15 12:49:38;;;;;;;2.33;2.13;;;26.00;52.00;;;;;;4993438;28;20549;-68
2022/07/15 12:52:30;;;;;;;3.10;2.67;;;26.00;50.80;;;;;;4993571;28;20420;-70
2022/07/15 12:54:57;;;;;;;5.30;3.30;;;25.90;51.30;;;;;;4997222;28;20465;-68
2022/07/15 12:57:32;;;;;;;6.87;2.17;;;25.90;51.40;;;;;;4996916;28;20374;-68
2022/07/15 13:00:16;;;;;;;2.20;2.10;;;25.90;51.70;;;;;;4997255;28;20437;-66
2022/07/15 13:03:03;;;;;;;2.50;2.03;;;25.90;51.80;;;;;;5008778;28;20579;-68
2022/07/15 13:05:39;;;;;;;2.93;2.70;;;26.10;52.50;;;;;;5016590;28;20417;-68
2022/07/15 13:08:19;;;;;;;2.07;1.97;;;26.30;51.20;;;;;;5015343;28;20425;-69
2022/07/15 13:10:49;;;;;;;2.60;2.40;;;26.60;50.40;;;;;;5016778;28;20428;-70
2022/07/15 13:13:17;;;;;;;2.53;2.33;;;26.80;50.50;;;;;;5015922;28;20434;-67
2022/07/15 13:15:44;;;;;;;2.47;2.27;;;27.00;51.50;;;;;;5016394;28;20907;-67
2022/07/15 13:18:11;;;;;;;2.40;2.30;;;27.30;50.70;;;;;;4997904;28;20400;-70
2022/07/15 13:20:37;;;;;;;2.20;2.00;;;27.40;49.60;;;;;;4996850;28;20722;-69
2022/07/15 13:23:03;;;;;;;2.33;2.23;;;27.60;50.80;;;;;;4996461;28;20392;-68
2022/07/15 13:25:30;;;;;;;2.27;2.07;;;27.70;49.70;;;;;;4996872;28;20391;-69
2022/07/15 13:27:58;;;;;;;2.73;2.40;;;27.80;49.80;;;;;;4996770;28;20410;-68
2022/07/15 13:30:24;;;;;;;2.17;1.93;;;27.90;50.10;;;;;;4996512;28;20514;-67
2022/07/15 13:32:50;;;;;;;3.90;2.30;;;27.90;49.70;;;;;;5013419;28;20469;-68
2022/07/15 13:35:15;;;;;;;2.60;1.80;;;27.90;49.10;;;;;;5016046;28;20699;-69
2022/07/15 13:37:41;;;;;;;2.50;2.30;;;27.80;48.90;;;;;;5016041;28;20178;-69
2022/07/15 13:40:10;;;;;;;2.53;2.03;;;27.80;49.90;;;;;;5015905;28;20177;-68
2022/07/15 13:42:36;;;;;;;4.27;3.60;;;27.70;49.70;;;;;;5015553;28;20392;-69
2022/07/15 13:45:02;;;;;;;2.00;1.90;;;27.70;49.50;;;;;;5004735;28;20975;-69
2022/07/15 13:47:28;;;;;;;2.30;2.20;;;27.70;49.90;;;;;;4996280;28;20182;-70
2022/07/15 13:52:46;;;;;;;2.30;2.20;;;27.50;49.10;;;;;;4995905;28;20627;-67
2022/07/15 13:55:13;;;;;;;2.37;2.17;;;27.40;48.90;;;;;;4996175;28;20470;-67
2022/07/15 13:57:39;;;;;;;3.23;2.73;;;27.10;48.90;;;;;;4995982;28;20750;-69
2022/07/15 14:00:07;;;;;;;1.90;1.80;;;27.00;50.10;;;;;;5008910;28;20429;-69
2022/07/15 14:02:34;;;;;;;2.50;2.40;;;27.00;50.10;;;;;;5015311;28;20183;-67
2022/07/15 14:04:59;;;;;;;2.40;2.30;;;27.00;51.60;;;;;;5014137;28;20460;-67
2022/07/15 14:07:25;;;;;;;2.50;2.33;;;26.90;51.30;;;;;;5015658;28;20410;-68
2022/07/15 14:09:51;;;;;;;3.03;2.33;;;26.80;51.50;;;;;;5015736;28;20202;-67
2022/07/15 14:12:17;;;;;;;2.00;1.90;;;26.70;51.50;;;;;;5015014;28;20406;-68
2022/07/15 14:14:43;;;;;;;3.07;2.33;;;26.70;52.00;;;;;;5002607;28;20776;-69
2022/07/15 14:17:09;;;;;;;2.30;2.10;;;26.70;51.90;;;;;;4995881;28;20176;-69
2022/07/15 14:19:34;;;;;;;2.57;2.37;;;26.80;52.60;;;;;;4995741;28;20431;-67
2022/07/15 14:22:00;;;;;;;2.00;1.90;;;26.90;52.20;;;;;;5008222;28;20190;-68
2022/07/15 14:24:28;;;;;;;2.13;2.03;;;27.00;51.50;;;;;;5014581;28;20199;-68
2022/07/15 14:26:54;;;;;;;3.20;2.70;;;27.00;51.30;;;;;;5013894;28;20546;-69
2022/07/15 14:29:20;;;;;;;2.50;2.23;;;27.20;51.60;;;;;;5015069;28;20449;-68
2022/07/15 14:31:46;;;;;;;2.73;2.53;;;27.20;51.60;;;;;;5013815;28;20219;-69
2022/07/15 14:34:11;;;;;;;2.33;2.13;;;27.20;52.10;;;;;;5004200;28;20451;-69
2022/07/15 14:36:37;;;;;;;2.07;1.97;;;27.20;51.50;;;;;;4995416;28;20170;-70
2022/07/15 14:39:04;;;;;;;2.77;2.37;;;27.20;51.20;;;;;;4995484;28;20259;-69
2022/07/15 14:41:29;;;;;;;2.20;2.10;;;27.10;51.40;;;;;;4995231;28;20172;-71
2022/07/15 14:43:55;;;;;;;2.50;2.27;;;26.90;50.70;;;;;;4994821;28;20443;-68
2022/07/15 14:46:21;;;;;;;2.50;2.20;;;26.80;51.30;;;;;;4996069;28;20548;-69
2022/07/15 14:48:47;;;;;;;2.63;2.43;;;26.80;51.50;;;;;;4995149;28;20221;-70
2022/07/15 14:51:13;;;;;;;2.87;2.67;;;26.70;52.30;;;;;;4995230;28;20160;-68
2022/07/15 14:53:39;;;;;;;2.63;2.43;;;26.60;51.70;;;;;;4994719;28;20414;-69
2022/07/15 14:56:05;;;;;;;1.83;1.73;;;26.50;51.50;;;;;;4994964;28;20560;-69
2022/07/15 14:58:30;;;;;;;4.00;2.43;;;26.40;52.70;;;;;;4994934;28;20172;-69
2022/07/15 15:00:56;;;;;;;7.17;2.07;;;26.40;52.70;;;;;;5004193;28;20179;-69
2022/07/15 15:03:21;;;;;;;2.57;2.37;;;26.30;52.30;;;;;;5014067;28;20221;-69
2022/07/15 15:05:47;;;;;;;2.70;1.80;;;26.40;51.90;;;;;;5014244;28;20274;-68
2022/07/15 15:08:13;;;;;;;2.20;2.10;;;26.30;52.30;;;;;;5014571;28;20179;-68
2022/07/15 15:10:38;;;;;;;2.23;2.13;;;26.30;51.80;;;;;;5013903;28;20206;-68
2022/07/15 15:13:04;;;;;;;4.63;3.00;;;26.20;52.30;;;;;;5012277;28;20170;-69
2022/07/15 15:15:29;;;;;;;2.20;2.10;;;26.20;52.50;;;;;;5012134;28;20197;-68
2022/07/15 15:17:55;;;;;;;5.07;2.60;;;26.10;51.80;;;;;;5014382;28;20221;-71
2022/07/15 15:20:21;;;;;;;2.23;2.03;;;26.10;52.70;;;;;;5013154;28;20271;-67
2022/07/15 15:22:47;;;;;;;2.40;2.30;;;26.00;52.20;;;;;;5014230;28;20638;-68
2022/07/15 15:25:13;;;;;;;2.50;2.30;;;25.80;51.60;;;;;;5014477;28;20638;-67
2022/07/15 15:27:39;;;;;;;2.40;2.30;;;25.70;52.00;;;;;;5013511;28;20417;-68
2022/07/15 15:30:07;;;;;;;2.00;1.90;;;25.50;52.30;;;;;;5010971;28;20205;-68
2022/07/15 15:32:32;;;;;;;2.10;2.00;;;25.30;52.40;;;;;;4994820;28;20433;-67
2022/07/15 15:34:58;;;;;;;2.33;2.13;;;25.30;53.10;;;;;;4994018;28;20435;-68
2022/07/15 15:37:24;;;;;;;2.67;2.47;;;25.20;52.40;;;;;;4994056;28;20257;-67
2022/07/15 15:39:50;;;;;;;2.60;2.40;;;25.20;52.90;;;;;;4994029;28;20179;-68
2022/07/15 15:42:15;;;;;;;4.70;3.10;;;25.00;53.10;;;;;;4993920;28;20539;-68
2022/07/15 15:44:41;;;;;;;3.10;2.30;;;25.00;52.70;;;;;;5012713;28;20640;-69
2022/07/15 15:47:07;;;;;;;2.13;2.00;;;25.00;53.00;;;;;;5014022;28;20176;-68
2022/07/15 15:49:35;;;;;;;2.30;2.17;;;25.00;52.70;;;;;;5013561;28;20241;-67
2022/07/15 15:52:02;;;;;;;1.93;1.77;;;24.90;52.70;;;;;;5013691;28;20456;-68
2022/07/15 15:54:28;;;;;;;2.10;2.00;;;24.90;52.60;;;;;;5013262;28;20900;-67
2022/07/15 15:56:54;;;;;;;2.07;1.90;;;24.80;52.90;;;;;;5001303;28;20426;-66
2022/07/15 15:59:19;;;;;;;1.90;1.80;;;24.80;52.30;;;;;;4994092;28;20172;-67
2022/07/15 16:01:45;;;;;;;2.00;1.90;;;24.80;52.90;;;;;;4994059;28;20235;-67
2022/07/15 16:04:11;;;;;;;2.80;2.10;;;24.80;52.70;;;;;;4993306;28;20196;-67
2022/07/15 16:06:36;;;;;;;2.83;2.20;;;24.70;52.90;;;;;;4994099;28;20406;-67
2022/07/15 16:09:02;;;;;;;2.47;2.27;;;24.70;52.50;;;;;;4993838;28;20176;-67
2022/07/15 16:11:28;;;;;;;2.13;1.93;;;24.70;52.30;;;;;;5003075;28;20175;-69
2022/07/15 16:13:54;;;;;;;2.47;2.27;;;24.70;52.50;;;;;;5011738;28;20442;-69
2022/07/15 16:16:20;;;;;;;2.97;2.40;;;24.70;53.10;;;;;;5013381;28;20381;-67
2022/07/15 16:18:46;;;;;;;2.10;2.00;;;24.70;53.10;;;;;;5013236;28;20167;-68
2022/07/15 16:21:11;;;;;;;2.37;2.17;;;24.80;53.30;;;;;;5013127;28;20170;-68
2022/07/15 16:23:37;;;;;;;2.13;2.03;;;24.80;53.40;;;;;;5012757;28;20301;-68
2022/07/15 16:26:03;;;;;;;2.10;2.00;;;24.80;53.30;;;;;;5011622;28;20221;-69
2022/07/15 16:28:29;;;;;;;2.20;2.10;;;24.80;53.20;;;;;;5013405;28;20173;-69
2022/07/15 16:30:54;;;;;;;2.00;1.90;;;24.80;52.30;;;;;;5017262;28;20247;-68
2022/07/15 16:33:20;;;;;;;2.30;2.10;;;24.80;52.30;;;;;;5016616;28;20195;-69
2022/07/15 16:35:46;;;;;;;2.27;2.10;;;24.80;52.60;;;;;;5017415;28;20643;-69
2022/07/15 16:38:12;;;;;;;1.80;1.70;;;24.80;52.80;;;;;;5017210;28;20202;-69
2022/07/15 16:40:39;;;;;;;3.03;2.30;;;24.70;52.70;;;;;;5002626;28;20430;-68
2022/07/15 16:43:06;;;;;;;2.10;2.00;;;24.70;52.50;;;;;;4997229;28;20170;-70
2022/07/15 16:45:33;;;;;;;4.97;2.50;;;24.60;52.60;;;;;;4997489;28;20910;-67
2022/07/15 16:47:59;;;;;;;2.40;2.30;;;24.50;52.50;;;;;;4995814;28;20426;-66
2022/07/15 16:50:25;;;;;;;2.37;2.17;;;24.50;52.60;;;;;;4996703;28;20830;-64
2022/07/15 16:52:51;;;;;;;2.00;1.90;;;24.40;52.50;;;;;;5002718;28;20163;-64
2022/07/15 16:55:16;;;;;;;2.03;1.93;;;24.30;52.60;;;;;;5016778;28;20236;-65
2022/07/15 16:57:42;;;;;;;2.53;2.00;;;24.30;52.80;;;;;;5016881;28;20402;-63
2022/07/15 17:00:11;;;;;;;1.90;1.80;;;24.20;52.80;;;;;;5016580;28;20237;-66
2022/07/15 17:02:37;;;;;;;2.00;1.90;;;24.10;53.20;;;;;;5016139;28;20873;-64
2022/07/15 17:05:04;;;;;;;2.87;2.67;;;24.00;53.20;;;;;;5016181;28;20488;-64
2022/07/15 17:07:29;;;;;;;2.17;2.07;;;24.00;53.40;;;;;;5010420;28;20433;-65
2022/07/15 17:09:55;;;;;;;2.60;2.43;;;24.00;53.90;;;;;;4996475;28;20952;-65
2022/07/15 17:12:21;;;;;;;2.63;2.43;;;24.00;53.80;;;;;;5002446;28;20178;-65
2022/07/15 17:14:49;;;;;;;1.97;1.87;;;23.90;53.80;;;;;;5015344;28;20278;-66